createdAt,value
2019-03-08T00:01:06.688Z,5.27
2019-03-08T00:03:38.332Z,5.53
2019-03-08T00:06:09.941Z,5.40
2019-03-08T00:08:41.846Z,6.27
2019-03-08T00:11:13.622Z,6.00
2019-03-08T00:13:45.302Z,5.57
2019-03-08T00:16:19.152Z,5.13
2019-03-08T00:18:53.972Z,6.47
2019-03-08T00:21:25.544Z,6.90
2019-03-08T00:23:57.365Z,8.53
2019-03-08T00:26:29.114Z,7.80
2019-03-08T00:29:00.897Z,8.63
2019-03-08T00:31:32.695Z,9.00
2019-03-08T00:34:04.455Z,9.60
2019-03-08T00:36:36.143Z,9.97
2019-03-08T00:39:08.585Z,15.47
2019-03-08T00:41:41.422Z,11.93
2019-03-08T00:44:13.503Z,13.27
2019-03-08T00:46:45.155Z,11.03
2019-03-08T00:49:16.856Z,11.60
2019-03-08T00:51:48.563Z,9.87
2019-03-08T00:54:20.243Z,9.03
2019-03-08T00:56:53.372Z,10.43
2019-03-08T00:59:25.118Z,8.70
2019-03-08T01:01:56.853Z,8.43
2019-03-08T01:04:28.559Z,9.20
2019-03-08T01:07:00.340Z,8.60
2019-03-08T01:09:32.264Z,8.73
2019-03-08T01:12:04.067Z,8.67
2019-03-08T01:14:35.900Z,8.53
2019-03-08T01:17:07.494Z,8.80
2019-03-08T01:19:39.583Z,8.40
2019-03-08T01:22:12.503Z,8.00
2019-03-08T01:24:44.074Z,6.77
2019-03-08T01:27:15.684Z,8.70
2019-03-08T01:29:47.633Z,9.37
2019-03-08T01:32:19.526Z,9.50
2019-03-08T01:34:51.600Z,9.27
2019-03-08T01:37:23.331Z,10.80
2019-03-08T01:39:55.050Z,10.23
2019-03-08T01:42:26.783Z,9.53
2019-03-08T01:44:58.536Z,8.07
2019-03-08T01:47:30.233Z,8.20
2019-03-08T01:50:04.843Z,9.17
2019-03-08T01:52:36.680Z,8.97
2019-03-08T01:55:08.631Z,9.17
2019-03-08T01:57:40.350Z,9.37
2019-03-08T02:00:16.287Z,11.47
2019-03-08T02:02:48.390Z,10.67
2019-03-08T02:05:20.659Z,8.93
2019-03-08T02:07:52.406Z,8.90
2019-03-08T02:10:24.077Z,9.97
2019-03-08T02:12:55.904Z,9.83
2019-03-08T02:15:27.628Z,10.97
2019-03-08T02:17:59.482Z,10.60
2019-03-08T02:20:31.126Z,10.23
2019-03-08T02:23:02.905Z,10.63
2019-03-08T02:25:34.575Z,10.67
2019-03-08T02:28:06.382Z,11.20
2019-03-08T02:30:38.177Z,9.93
2019-03-08T02:33:09.890Z,10.57
2019-03-08T02:35:43.608Z,9.80
2019-03-08T02:38:15.533Z,10.80
2019-03-08T02:40:47.662Z,10.17
2019-03-08T02:43:20.344Z,12.13
2019-03-08T02:45:52.003Z,11.90
2019-03-08T02:48:23.705Z,11.93
2019-03-08T02:50:55.493Z,12.17
2019-03-08T02:53:27.252Z,12.67
2019-03-08T02:55:58.968Z,12.47
2019-03-08T02:58:30.628Z,12.27
2019-03-08T03:01:02.508Z,12.43
2019-03-08T03:03:34.709Z,12.47
2019-03-08T03:06:06.580Z,15.57
2019-03-08T03:08:38.359Z,16.57
2019-03-08T03:11:10.028Z,15.57
2019-03-08T03:13:41.948Z,14.70
2019-03-08T03:16:14.958Z,14.07
2019-03-08T03:18:46.540Z,14.73
2019-03-08T03:21:18.260Z,14.67
2019-03-08T03:23:50.128Z,15.17
2019-03-08T03:26:21.900Z,14.40
2019-03-08T03:28:53.616Z,14.40
2019-03-08T03:31:26.603Z,12.93
2019-03-08T03:33:58.258Z,13.90
2019-03-08T03:36:30.087Z,13.83
2019-03-08T03:39:01.890Z,14.00
2019-03-08T03:41:35.218Z,14.20
2019-03-08T03:44:06.787Z,14.17
2019-03-08T03:46:38.383Z,14.27
2019-03-08T03:49:10.163Z,15.77
2019-03-08T03:51:41.973Z,16.87
2019-03-08T03:54:13.441Z,15.70
2019-03-08T03:56:46.775Z,19.43
2019-03-08T03:59:18.610Z,16.47
2019-03-08T04:01:51.254Z,17.40
2019-03-08T04:04:23.029Z,16.63
2019-03-08T04:06:54.799Z,16.67
2019-03-08T04:09:27.593Z,19.17
2019-03-08T04:11:59.330Z,17.43
2019-03-08T04:14:30.942Z,16.27
2019-03-08T04:17:02.726Z,16.13
2019-03-08T04:19:34.299Z,16.30
2019-03-08T04:22:05.991Z,16.37
2019-03-08T04:24:37.608Z,21.07
2019-03-08T04:27:09.384Z,22.33
2019-03-08T04:29:41.092Z,19.90
2019-03-08T04:32:12.858Z,18.30
2019-03-08T04:34:44.789Z,17.77
2019-03-08T04:37:16.676Z,17.47
2019-03-08T04:39:48.426Z,17.13
2019-03-08T04:42:20.098Z,17.27
2019-03-08T04:44:54.587Z,18.23
2019-03-08T04:47:26.310Z,17.77
2019-03-08T04:49:58.015Z,16.00
2019-03-08T04:52:29.673Z,15.60
2019-03-08T04:55:01.402Z,17.23
2019-03-08T04:57:33.252Z,17.10
2019-03-08T05:00:05.122Z,16.90
2019-03-08T05:02:36.993Z,17.20
2019-03-08T05:05:08.850Z,16.37
2019-03-08T05:07:40.704Z,16.70
2019-03-08T05:10:14.067Z,15.97
2019-03-08T05:12:46.037Z,15.77
2019-03-08T05:15:17.908Z,16.07
2019-03-08T05:17:51.054Z,26.33
2019-03-08T05:20:22.833Z,20.70
2019-03-08T05:22:54.709Z,18.10
2019-03-08T05:25:28.739Z,18.77
2019-03-08T05:28:00.480Z,16.70
2019-03-08T05:30:32.209Z,20.30
2019-03-08T05:33:03.944Z,20.40
2019-03-08T05:35:35.969Z,27.67
2019-03-08T05:38:07.707Z,18.00
2019-03-08T05:40:40.622Z,17.30
2019-03-08T05:43:12.331Z,15.47
2019-03-08T05:45:44.071Z,15.53
2019-03-08T05:48:20.091Z,16.13
2019-03-08T05:50:51.864Z,15.27
2019-03-08T05:53:23.522Z,16.03
2019-03-08T05:55:55.293Z,15.80
2019-03-08T05:58:27.045Z,15.90
2019-03-08T06:01:01.461Z,16.60
2019-03-08T06:03:33.274Z,15.50
2019-03-08T06:06:05.050Z,15.03
2019-03-08T06:08:36.661Z,15.63
2019-03-08T06:11:08.618Z,15.93
2019-03-08T06:13:40.306Z,15.03
2019-03-08T06:16:12.160Z,15.27
2019-03-08T06:18:44.076Z,14.87
2019-03-08T06:21:15.768Z,15.77
2019-03-08T06:23:47.298Z,15.27
2019-03-08T06:26:19.009Z,14.53
2019-03-08T06:28:53.858Z,14.30
2019-03-08T06:31:25.729Z,13.57
2019-03-08T06:33:59.154Z,14.73
2019-03-08T06:36:30.829Z,13.77
2019-03-08T06:39:02.579Z,15.03
2019-03-08T06:41:35.700Z,14.80
2019-03-08T06:44:07.580Z,13.60
2019-03-08T06:46:39.495Z,14.40
2019-03-08T06:49:11.327Z,15.37
2019-03-08T06:51:43.123Z,14.80
2019-03-08T06:54:14.934Z,13.60
2019-03-08T06:56:46.855Z,12.77
2019-03-08T06:59:24.954Z,14.40
2019-03-08T07:01:56.706Z,13.13
2019-03-08T07:04:28.619Z,12.40
2019-03-08T07:07:00.329Z,12.50
2019-03-08T07:09:32.109Z,12.53
2019-03-08T07:12:03.881Z,11.70
2019-03-08T07:14:38.296Z,12.37
2019-03-08T07:17:10.074Z,11.50
2019-03-08T07:19:57.488Z,12.10
2019-03-08T07:22:52.529Z,12.27
2019-03-08T07:25:51.103Z,11.83
2019-03-08T07:28:36.020Z,11.50
2019-03-08T07:31:35.888Z,12.13
2019-03-08T07:34:16.916Z,11.47
2019-03-08T07:37:08.460Z,12.60
2019-03-08T07:39:53.044Z,12.37
2019-03-08T07:42:42.280Z,12.37
2019-03-08T07:45:33.364Z,12.57
2019-03-08T07:48:20.917Z,12.07
2019-03-08T07:51:14.860Z,12.03
2019-03-08T07:53:57.351Z,11.00
2019-03-08T07:56:41.794Z,12.07
2019-03-08T07:59:53.646Z,12.10
2019-03-08T08:02:48.774Z,11.13
2019-03-08T08:05:39.224Z,12.43
2019-03-08T08:08:24.143Z,12.20
2019-03-08T08:11:13.446Z,12.00
2019-03-08T08:14:01.117Z,11.87
2019-03-08T08:16:51.771Z,10.93
2019-03-08T08:19:40.973Z,10.00
2019-03-08T08:22:46.863Z,10.53
2019-03-08T08:25:37.007Z,9.13
2019-03-08T08:28:16.713Z,10.33
2019-03-08T08:31:06.598Z,9.73
2019-03-08T08:33:57.116Z,9.73
2019-03-08T08:36:41.938Z,10.43
2019-03-08T08:39:32.220Z,9.57
2019-03-08T08:42:22.728Z,10.40
2019-03-08T08:45:12.618Z,9.00
2019-03-08T08:48:01.850Z,9.13
2019-03-08T08:50:55.198Z,9.23
2019-03-08T08:54:00.656Z,8.83
2019-03-08T08:56:50.406Z,9.57
2019-03-08T08:59:39.556Z,9.27
2019-03-08T09:02:28.418Z,8.50
2019-03-08T09:05:11.339Z,8.67
2019-03-08T09:08:13.890Z,8.63
2019-03-08T09:11:07.243Z,8.50
2019-03-08T09:13:52.741Z,7.87
2019-03-08T09:16:34.741Z,7.10
2019-03-08T09:19:25.367Z,7.23
2019-03-08T09:22:34.293Z,7.80
2019-03-08T09:25:18.772Z,8.40
2019-03-08T09:27:57.116Z,7.17
2019-03-08T09:30:36.397Z,6.97
2019-03-08T09:33:23.615Z,6.93
2019-03-08T09:36:14.137Z,6.60
2019-03-08T09:39:13.657Z,6.87
2019-03-08T09:42:04.173Z,6.70
2019-03-08T09:44:52.882Z,6.80
2019-03-08T09:47:43.106Z,6.17
2019-03-08T09:50:51.848Z,7.77
2019-03-08T09:53:35.915Z,6.67
2019-03-08T09:56:15.043Z,6.10
2019-03-08T09:59:03.442Z,6.58
2019-03-08T10:01:46.662Z,5.92
2019-03-08T10:04:35.494Z,6.42
2019-03-08T10:07:25.817Z,6.53
2019-03-08T10:10:08.169Z,5.90
2019-03-08T10:13:04.743Z,6.70
2019-03-08T10:15:47.490Z,6.80
2019-03-08T10:18:46.667Z,6.70
2019-03-08T10:21:28.408Z,6.67
2019-03-08T10:24:21.514Z,5.78
2019-03-08T10:27:03.591Z,6.75
2019-03-08T10:30:06.339Z,6.87
2019-03-08T10:33:03.342Z,6.72
2019-03-08T10:35:53.633Z,7.25
2019-03-08T10:38:36.535Z,6.33
2019-03-08T10:41:16.929Z,6.30
2019-03-08T10:44:09.092Z,6.67
2019-03-08T10:47:12.552Z,7.10
2019-03-08T10:49:55.448Z,6.62
2019-03-08T10:52:40.097Z,6.05
2019-03-08T10:55:46.331Z,6.30
2019-03-08T10:58:35.425Z,6.17
2019-03-08T11:01:22.403Z,6.08
2019-03-08T11:04:14.808Z,6.20
2019-03-08T11:07:11.785Z,6.33
2019-03-08T11:09:50.034Z,6.30
2019-03-08T11:12:47.032Z,6.83
2019-03-08T11:15:43.722Z,7.40
2019-03-08T11:18:22.743Z,7.15
2019-03-08T11:21:12.078Z,6.45
2019-03-08T11:23:51.155Z,6.22
2019-03-08T11:27:04.748Z,6.17
2019-03-08T11:29:48.606Z,6.35
2019-03-08T11:32:34.671Z,6.37
2019-03-08T11:35:28.371Z,6.50
2019-03-08T11:38:34.030Z,6.17
2019-03-08T11:41:31.455Z,6.15
2019-03-08T11:44:09.778Z,5.40
2019-03-08T11:47:18.395Z,7.42
2019-03-08T11:50:20.809Z,6.80
2019-03-08T11:53:05.593Z,5.83
2019-03-08T11:56:02.311Z,6.47
2019-03-08T11:58:58.851Z,7.37
2019-03-08T12:01:42.609Z,7.50
2019-03-08T12:04:36.076Z,7.70
2019-03-08T12:07:29.309Z,6.62
2019-03-08T12:10:18.440Z,6.50
2019-03-08T12:13:06.679Z,7.70
2019-03-08T12:16:15.397Z,8.30
2019-03-08T12:19:08.938Z,7.03
2019-03-08T12:21:59.463Z,7.37
2019-03-08T12:24:36.652Z,7.35
2019-03-08T12:27:23.682Z,7.90
2019-03-08T12:30:17.032Z,6.67
2019-03-08T12:33:25.799Z,7.97
2019-03-08T12:36:08.359Z,7.90
2019-03-08T12:38:53.126Z,8.10
2019-03-08T12:41:42.097Z,7.60
2019-03-08T12:44:25.285Z,6.87
2019-03-08T12:47:14.366Z,7.40
2019-03-08T12:50:22.727Z,8.03
2019-03-08T12:53:13.223Z,7.83
2019-03-08T12:56:02.493Z,9.13
2019-03-08T12:58:46.152Z,9.30
2019-03-08T13:01:24.964Z,7.40
2019-03-08T13:04:13.363Z,8.23
2019-03-08T13:07:13.025Z,8.20
2019-03-08T13:09:51.005Z,9.30
2019-03-08T13:12:22.571Z,9.10
2019-03-08T13:14:54.283Z,9.30
2019-03-08T13:17:25.958Z,12.53
2019-03-08T13:19:57.869Z,12.20
2019-03-08T13:22:29.760Z,8.90
2019-03-08T13:25:01.542Z,10.13
2019-03-08T13:27:33.490Z,10.30
2019-03-08T13:30:05.598Z,9.63
2019-03-08T13:32:37.492Z,10.30
2019-03-08T13:35:09.902Z,11.47
2019-03-08T13:37:41.488Z,12.10
2019-03-08T13:40:13.988Z,11.90
2019-03-08T13:42:45.641Z,11.33
2019-03-08T13:45:17.877Z,11.60
2019-03-08T13:47:49.424Z,11.90
2019-03-08T13:50:21.272Z,12.67
2019-03-08T13:52:53.081Z,14.77
2019-03-08T13:55:24.713Z,15.43
2019-03-08T13:57:56.405Z,13.23
2019-03-08T14:00:28.123Z,11.90
2019-03-08T14:02:59.812Z,12.13
2019-03-08T14:05:31.783Z,12.13
2019-03-08T14:08:03.501Z,12.87
2019-03-08T14:10:36.360Z,14.03
2019-03-08T14:13:07.964Z,15.67
2019-03-08T14:15:40.133Z,14.07
2019-03-08T14:18:11.886Z,12.17
2019-03-08T14:20:43.801Z,11.60
2019-03-08T14:23:15.685Z,11.23
2019-03-08T14:25:47.440Z,11.50
2019-03-08T14:28:19.259Z,11.43
2019-03-08T14:30:58.061Z,10.93
2019-03-08T14:33:30.156Z,11.40
2019-03-08T14:36:03.045Z,11.17
2019-03-08T14:38:39.050Z,10.63
2019-03-08T14:41:19.259Z,10.07
2019-03-08T14:43:56.295Z,13.73
2019-03-08T14:46:41.747Z,14.30
2019-03-08T14:49:13.479Z,11.73
2019-03-08T14:51:48.202Z,11.07
2019-03-08T14:54:18.630Z,10.60
2019-03-08T14:56:50.341Z,11.03
2019-03-08T14:59:22.027Z,10.77
2019-03-08T15:01:53.675Z,10.20
2019-03-08T15:04:25.237Z,11.53
2019-03-08T15:06:57.084Z,11.07
2019-03-08T15:09:29.403Z,11.93
2019-03-08T15:12:02.178Z,10.33
2019-03-08T15:14:35.243Z,10.93
2019-03-08T15:17:09.353Z,10.53
2019-03-08T15:19:41.818Z,10.37
2019-03-08T15:22:13.720Z,11.57
2019-03-08T15:24:45.797Z,10.97
2019-03-08T15:27:17.517Z,12.47
2019-03-08T15:29:54.463Z,12.00
2019-03-08T15:32:22.543Z,11.83
2019-03-08T15:34:54.906Z,10.67
2019-03-08T15:37:26.584Z,10.90
2019-03-08T15:39:58.413Z,11.30
2019-03-08T15:42:30.080Z,11.33
2019-03-08T15:45:05.397Z,11.20
2019-03-08T15:47:36.215Z,11.33
2019-03-08T15:50:10.954Z,10.40
2019-03-08T15:52:42.573Z,18.07
2019-03-08T15:55:14.283Z,10.43
2019-03-08T15:57:45.826Z,9.70
2019-03-08T16:00:22.080Z,9.00
2019-03-08T16:02:54.714Z,9.37
2019-03-08T16:05:28.337Z,13.33
2019-03-08T16:08:01.636Z,9.43
2019-03-08T16:10:33.330Z,10.03
2019-03-08T16:13:05.284Z,10.40
2019-03-08T16:15:37.116Z,7.47
2019-03-08T16:18:08.843Z,7.80
2019-03-08T16:20:40.794Z,7.70
2019-03-08T16:23:12.646Z,8.63
2019-03-08T16:25:47.659Z,11.20
2019-03-08T16:28:17.504Z,10.23
2019-03-08T16:30:53.254Z,10.50
2019-03-08T16:33:36.802Z,10.00
2019-03-08T16:36:16.123Z,10.47
2019-03-08T16:39:11.321Z,10.73
2019-03-08T16:42:00.690Z,23.03
2019-03-08T16:44:51.035Z,27.13
2019-03-08T16:47:53.184Z,22.23
2019-03-08T16:50:34.785Z,16.77
2019-03-08T16:53:16.314Z,47.33
2019-03-08T16:56:05.425Z,31.97
2019-03-08T16:58:58.633Z,39.57
2019-03-08T17:01:42.114Z,33.57
2019-03-08T17:04:47.744Z,24.70
2019-03-08T17:07:40.878Z,48.23
2019-03-08T17:10:35.220Z,44.47
2019-03-08T17:13:14.202Z,65.07
2019-03-08T17:16:10.644Z,29.33
2019-03-08T17:19:01.023Z,31.47
2019-03-08T17:21:58.398Z,20.87
2019-03-08T17:24:42.686Z,17.07
2019-03-08T17:27:33.036Z,35.47
2019-03-08T17:30:21.606Z,31.00
2019-03-08T17:33:20.948Z,26.30
2019-03-08T17:36:26.641Z,16.13
2019-03-08T17:39:31.928Z,31.13
2019-03-08T17:42:20.552Z,20.70
2019-03-08T17:45:23.024Z,18.53
2019-03-08T17:48:14.638Z,22.83
2019-03-08T17:51:05.157Z,17.23
2019-03-08T17:53:53.654Z,17.43
2019-03-08T17:56:34.445Z,15.10
2019-03-08T17:59:40.320Z,19.07
2019-03-08T18:02:21.581Z,22.57
2019-03-08T18:05:12.314Z,24.23
2019-03-08T18:08:02.817Z,22.03
2019-03-08T18:10:51.255Z,20.50
2019-03-08T18:13:41.649Z,19.87
2019-03-08T18:16:31.099Z,12.10
2019-03-08T18:19:20.859Z,11.57
2019-03-08T18:21:58.388Z,9.87
2019-03-08T18:24:39.985Z,9.10
2019-03-08T18:27:29.315Z,7.93
2019-03-08T18:30:19.717Z,8.97
2019-03-08T18:33:19.295Z,9.70
2019-03-08T18:36:13.650Z,8.53
2019-03-08T18:39:19.425Z,12.87
2019-03-08T18:42:09.964Z,11.90
2019-03-08T18:45:03.769Z,13.30
2019-03-08T18:47:57.344Z,10.23
2019-03-08T18:50:50.465Z,15.17
2019-03-08T18:53:45.515Z,16.60
2019-03-08T18:56:28.443Z,14.53
2019-03-08T18:59:11.361Z,20.43
2019-03-08T19:01:51.239Z,20.07
2019-03-08T19:04:50.599Z,14.50
2019-03-08T19:07:40.262Z,22.83
2019-03-08T19:10:33.732Z,23.63
2019-03-08T19:13:22.930Z,22.33
2019-03-08T19:16:03.650Z,29.43
2019-03-08T19:18:49.308Z,25.30
2019-03-08T19:21:38.829Z,44.90
2019-03-08T19:24:27.969Z,22.57
2019-03-08T19:27:36.561Z,31.10
2019-03-08T19:30:33.950Z,24.53
2019-03-08T19:33:28.038Z,17.97
2019-03-08T19:36:21.571Z,13.50
2019-03-08T19:39:18.139Z,20.07
2019-03-08T19:42:17.409Z,23.57
2019-03-08T19:45:00.826Z,41.37
2019-03-08T19:47:52.287Z,58.63
2019-03-08T19:50:48.928Z,37.90
2019-03-08T19:53:48.008Z,41.57
2019-03-08T19:56:53.585Z,40.03
2019-03-08T19:59:31.077Z,37.00
2019-03-08T20:02:41.748Z,25.57
2019-03-08T20:05:41.195Z,28.30
2019-03-08T20:08:47.059Z,32.67
2019-03-08T20:11:43.249Z,27.97
2019-03-08T20:14:27.603Z,26.53
2019-03-08T20:17:16.578Z,29.77
2019-03-08T20:23:01.619Z,37.70
2019-03-08T20:28:29.160Z,16.60
2019-03-08T20:31:31.360Z,12.63
2019-03-08T20:34:20.440Z,15.03
2019-03-08T20:37:02.508Z,17.40
2019-03-08T20:42:56.571Z,11.63
2019-03-08T20:48:17.100Z,11.93
2019-03-08T20:56:09.930Z,10.97
2019-03-08T21:01:22.799Z,9.73
2019-03-08T21:03:54.716Z,10.70
2019-03-08T21:06:26.476Z,10.83
2019-03-08T21:14:20.529Z,10.43
2019-03-08T21:22:14.766Z,10.07
2019-03-08T21:30:16.803Z,10.27
2019-03-08T21:35:29.639Z,10.50
2019-03-08T21:38:01.503Z,9.80
2019-03-08T21:43:14.298Z,9.70
2019-03-08T21:45:46.416Z,9.53
2019-03-08T21:50:59.150Z,9.37
2019-03-08T21:53:30.866Z,9.23
2019-03-08T22:01:23.506Z,9.27
2019-03-08T22:04:00.806Z,9.47
2019-03-08T22:06:32.646Z,8.87
2019-03-08T22:09:17.675Z,10.57
2019-03-08T22:11:49.475Z,9.50
2019-03-08T22:14:21.272Z,10.97
2019-03-08T22:16:52.957Z,10.63
2019-03-08T22:19:24.641Z,11.07
2019-03-08T22:21:56.662Z,11.07
2019-03-08T22:24:28.260Z,11.53
2019-03-08T22:26:59.941Z,10.33
2019-03-08T22:29:31.658Z,10.67
2019-03-08T22:32:03.456Z,11.13
2019-03-08T22:34:35.182Z,10.80
2019-03-08T22:37:06.814Z,10.90
2019-03-08T22:39:38.585Z,11.30
2019-03-08T22:42:10.363Z,12.27
2019-03-08T22:44:42.312Z,12.03
2019-03-08T22:47:14.010Z,10.33
2019-03-08T22:49:45.723Z,11.77
2019-03-08T22:52:17.408Z,12.03
2019-03-08T22:54:49.278Z,11.33
2019-03-08T22:57:20.963Z,11.90
2019-03-08T22:59:52.825Z,11.37
2019-03-08T23:02:25.489Z,11.27
2019-03-08T23:04:57.203Z,11.60
2019-03-08T23:07:29.061Z,10.83
2019-03-08T23:10:00.909Z,10.80
2019-03-08T23:12:34.069Z,10.80
2019-03-08T23:15:06.001Z,10.83
2019-03-08T23:17:37.991Z,10.27
2019-03-08T23:20:09.666Z,10.13
2019-03-08T23:22:41.402Z,11.37
2019-03-08T23:25:13.028Z,10.70
2019-03-08T23:27:52.929Z,10.57
2019-03-08T23:30:27.773Z,11.43
2019-03-08T23:32:59.449Z,10.60
2019-03-08T23:35:31.222Z,10.93
2019-03-08T23:38:02.888Z,9.03
2019-03-08T23:40:34.689Z,10.57
2019-03-08T23:43:06.471Z,9.50
2019-03-08T23:45:38.199Z,9.13
2019-03-08T23:48:10.227Z,9.50
2019-03-08T23:50:42.112Z,9.57
2019-03-08T23:53:13.765Z,10.30
2019-03-08T23:55:46.962Z,10.10
2019-03-08T23:58:18.567Z,9.97
